Aérodrome :
LOGIN :

S'inscrire | Disclaimer

   EN    FR    IT 

 










Légende :    VFR   VFR Marginal   IFR   IFR Intensif   IFR Très Intensif
Visi : 
Plafond : 
>= 8 km
>= 3000ft
5 à 8 km
1000 à 3000 ft
1500m à 5 km
500 à 1000 ft
800 à 1500m
200 à 500 ft
< 800m
< 200 ft
Symboles :   Orages  Brouillard  Fortes neiges  Fortes précipitations  Vent > 20 kt
SIGMETs :   Divers  Orages  Givrage  Turbulence  Onde Orograph.  Cendres Volcan.







- Altitude de l'aérodrome : 74 ft
- Code IATA : MRS
- Voir les cartes d'approche


LFML - Marseille / Marignane

DERNIER METAR :
  • 232130Z AUTO 13003KT CAVOK 07/00 Q1026 NOSIG

METARs EXPIRÉS :
  • 232100Z AUTO VRB03KT CAVOK 08/01 Q1025 NOSIG
  • 232030Z AUTO 00000KT CAVOK 10/02 Q1025 NOSIG
  • 232000Z AUTO 30004KT CAVOK 10/02 Q1025 NOSIG
  • 231930Z AUTO 32005KT 300V010 CAVOK 11/03 Q1025 NOSIG
  • 231900Z AUTO 33007KT 320V020 CAVOK 12/02 Q1025 NOSIG
  • 231830Z AUTO 33017KT 9999 FEW017 13/03 Q1024 BECMG VRB05KT

TAF TAF LFML
Valide du 23 à 21h jusqu'au 25 à 03h UTC


232000Z 2321/2503 VRB03KT CAVOK
BECMG 2412/2416 16010KT TX15/2413Z TN05/2404Z
ATIS : +33 4 42 31 15 15
Pas de NOTAMs connus pour ce terrain.



MET'MAP, la Météo Aéronautique d'un coup d'oeil ! - Copyright ORBIFLY Décembre 2007 - Disclaimer

ORBIFLY MET'MAP TEAM :

Programmation & Développement : Alexandra Zaïnal
Conception & Développement : Baudouin d'Aumeries
Co-Programmation & Développement : Marc-Olivier Méhu
Soutien technique & logistique : Manuel Goepfert

Contact : metmap@orbifly.com




SOURCES & CREDITS :

   NOAA